sensor_id;sensor_type;location;lat;lon;timestamp;P1;durP1;ratioP1;P2;durP2;ratioP2
17451;SDS011;8843;48.838;9.324;2022-10-31T00:01:32;7.67;;;4.00;;
17451;SDS011;8843;48.838;9.324;2022-10-31T00:04:01;6.17;;;4.20;;
17451;SDS011;8843;48.838;9.324;2022-10-31T00:06:28;6.93;;;4.87;;
17451;SDS011;8843;48.838;9.324;2022-10-31T00:08:56;9.50;;;6.00;;
17451;SDS011;8843;48.838;9.324;2022-10-31T00:11:24;9.83;;;4.67;;
17451;SDS011;8843;48.838;9.324;2022-10-31T00:13:52;8.20;;;5.23;;
17451;SDS011;8843;48.838;9.324;2022-10-31T00:16:21;9.63;;;4.77;;
17451;SDS011;8843;48.838;9.324;2022-10-31T00:18:50;8.20;;;4.73;;
17451;SDS011;8843;48.838;9.324;2022-10-31T00:21:19;6.43;;;4.63;;
17451;SDS011;8843;48.838;9.324;2022-10-31T00:23:46;7.70;;;4.20;;
17451;SDS011;8843;48.838;9.324;2022-10-31T00:26:13;7.63;;;4.27;;
17451;SDS011;8843;48.838;9.324;2022-10-31T00:28:40;9.47;;;4.60;;
17451;SDS011;8843;48.838;9.324;2022-10-31T00:31:08;8.70;;;4.60;;
17451;SDS011;8843;48.838;9.324;2022-10-31T00:33:38;6.67;;;4.00;;
17451;SDS011;8843;48.838;9.324;2022-10-31T00:36:06;7.27;;;3.93;;
17451;SDS011;8843;48.838;9.324;2022-10-31T00:38:34;6.87;;;4.97;;
17451;SDS011;8843;48.838;9.324;2022-10-31T00:41:01;9.80;;;4.03;;
17451;SDS011;8843;48.838;9.324;2022-10-31T00:43:28;8.13;;;4.17;;
17451;SDS011;8843;48.838;9.324;2022-10-31T00:45:55;7.13;;;4.30;;
17451;SDS011;8843;48.838;9.324;2022-10-31T00:48:21;11.50;;;5.27;;
17451;SDS011;8843;48.838;9.324;2022-10-31T00:50:50;9.03;;;5.10;;
17451;SDS011;8843;48.838;9.324;2022-10-31T00:53:17;4.40;;;4.00;;
17451;SDS011;8843;48.838;9.324;2022-10-31T00:55:43;9.93;;;4.57;;
17451;SDS011;8843;48.838;9.324;2022-10-31T00:58:10;8.73;;;4.33;;
17451;SDS011;8843;48.838;9.324;2022-10-31T01:00:37;8.13;;;5.40;;
17451;SDS011;8843;48.838;9.324;2022-10-31T01:03:04;8.23;;;4.60;;
17451;SDS011;8843;48.838;9.324;2022-10-31T01:05:31;9.30;;;5.30;;
17451;SDS011;8843;48.838;9.324;2022-10-31T01:08:00;12.67;;;5.20;;
17451;SDS011;8843;48.838;9.324;2022-10-31T01:10:26;6.43;;;3.50;;
17451;SDS011;8843;48.838;9.324;2022-10-31T01:12:53;6.13;;;4.50;;
17451;SDS011;8843;48.838;9.324;2022-10-31T01:15:21;9.53;;;4.73;;
17451;SDS011;8843;48.838;9.324;2022-10-31T01:17:49;12.07;;;4.53;;
17451;SDS011;8843;48.838;9.324;2022-10-31T01:20:16;8.47;;;4.43;;
17451;SDS011;8843;48.838;9.324;2022-10-31T01:22:43;6.73;;;4.60;;
17451;SDS011;8843;48.838;9.324;2022-10-31T01:25:12;8.00;;;4.50;;
17451;SDS011;8843;48.838;9.324;2022-10-31T01:27:39;6.63;;;4.70;;
17451;SDS011;8843;48.838;9.324;2022-10-31T01:30:06;10.27;;;5.13;;
17451;SDS011;8843;48.838;9.324;2022-10-31T01:32:33;9.73;;;4.60;;
17451;SDS011;8843;48.838;9.324;2022-10-31T01:35:00;8.20;;;4.90;;
17451;SDS011;8843;48.838;9.324;2022-10-31T01:37:27;8.53;;;4.67;;
17451;SDS011;8843;48.838;9.324;2022-10-31T01:39:54;8.27;;;4.87;;
17451;SDS011;8843;48.838;9.324;2022-10-31T01:42:22;5.73;;;4.30;;
17451;SDS011;8843;48.838;9.324;2022-10-31T01:44:51;9.93;;;4.63;;
17451;SDS011;8843;48.838;9.324;2022-10-31T01:47:21;11.33;;;5.47;;
17451;SDS011;8843;48.838;9.324;2022-10-31T01:50:01;7.10;;;4.50;;
17451;SDS011;8843;48.838;9.324;2022-10-31T01:52:32;6.50;;;4.83;;
17451;SDS011;8843;48.838;9.324;2022-10-31T01:55:03;7.67;;;4.43;;
17451;SDS011;8843;48.838;9.324;2022-10-31T01:57:35;8.70;;;4.03;;
17451;SDS011;8843;48.838;9.324;2022-10-31T02:00:06;7.87;;;4.10;;
17451;SDS011;8843;48.838;9.324;2022-10-31T02:02:34;8.53;;;4.10;;
17451;SDS011;8843;48.838;9.324;2022-10-31T02:05:01;8.60;;;3.97;;
17451;SDS011;8843;48.838;9.324;2022-10-31T02:07:33;8.77;;;4.23;;
17451;SDS011;8843;48.838;9.324;2022-10-31T02:10:04;7.70;;;3.87;;
17451;SDS011;8843;48.838;9.324;2022-10-31T02:12:31;6.53;;;4.53;;
17451;SDS011;8843;48.838;9.324;2022-10-31T02:15:03;5.27;;;3.80;;
17451;SDS011;8843;48.838;9.324;2022-10-31T02:17:30;9.60;;;4.40;;
17451;SDS011;8843;48.838;9.324;2022-10-31T02:20:00;6.50;;;4.13;;
17451;SDS011;8843;48.838;9.324;2022-10-31T02:22:38;6.60;;;4.40;;
17451;SDS011;8843;48.838;9.324;2022-10-31T02:25:18;6.67;;;3.73;;
17451;SDS011;8843;48.838;9.324;2022-10-31T02:30:58;6.10;;;4.07;;
17451;SDS011;8843;48.838;9.324;2022-10-31T02:33:30;7.83;;;4.57;;
17451;SDS011;8843;48.838;9.324;2022-10-31T02:36:07;6.87;;;4.07;;
17451;SDS011;8843;48.838;9.324;2022-10-31T02:38:42;8.13;;;4.77;;
17451;SDS011;8843;48.838;9.324;2022-10-31T02:41:18;5.77;;;4.23;;
17451;SDS011;8843;48.838;9.324;2022-10-31T02:43:54;7.97;;;4.33;;
17451;SDS011;8843;48.838;9.324;2022-10-31T02:46:30;7.17;;;3.90;;
17451;SDS011;8843;48.838;9.324;2022-10-31T02:49:02;7.13;;;4.27;;
17451;SDS011;8843;48.838;9.324;2022-10-31T02:51:34;8.57;;;3.87;;
17451;SDS011;8843;48.838;9.324;2022-10-31T02:54:01;6.63;;;3.70;;
17451;SDS011;8843;48.838;9.324;2022-10-31T02:56:28;6.40;;;3.67;;
17451;SDS011;8843;48.838;9.324;2022-10-31T02:58:55;4.50;;;3.07;;
17451;SDS011;8843;48.838;9.324;2022-10-31T03:01:28;5.83;;;3.97;;
17451;SDS011;8843;48.838;9.324;2022-10-31T03:04:21;8.40;;;3.87;;
17451;SDS011;8843;48.838;9.324;2022-10-31T03:07:08;6.37;;;3.70;;
17451;SDS011;8843;48.838;9.324;2022-10-31T03:09:43;6.27;;;3.97;;
17451;SDS011;8843;48.838;9.324;2022-10-31T03:12:19;6.30;;;3.77;;
17451;SDS011;8843;48.838;9.324;2022-10-31T03:14:53;8.70;;;3.80;;
17451;SDS011;8843;48.838;9.324;2022-10-31T03:17:26;7.37;;;4.50;;
17451;SDS011;8843;48.838;9.324;2022-10-31T03:20:01;6.53;;;3.67;;
17451;SDS011;8843;48.838;9.324;2022-10-31T03:22:32;8.20;;;3.43;;
17451;SDS011;8843;48.838;9.324;2022-10-31T03:25:02;8.97;;;3.70;;
17451;SDS011;8843;48.838;9.324;2022-10-31T03:27:30;6.37;;;3.70;;
17451;SDS011;8843;48.838;9.324;2022-10-31T03:30:01;6.37;;;3.90;;
17451;SDS011;8843;48.838;9.324;2022-10-31T03:32:32;5.47;;;3.93;;
17451;SDS011;8843;48.838;9.324;2022-10-31T03:35:04;6.47;;;3.97;;
17451;SDS011;8843;48.838;9.324;2022-10-31T03:37:35;7.63;;;3.87;;
17451;SDS011;8843;48.838;9.324;2022-10-31T03:40:04;3.87;;;3.47;;
17451;SDS011;8843;48.838;9.324;2022-10-31T03:42:34;6.07;;;3.70;;
17451;SDS011;8843;48.838;9.324;2022-10-31T03:45:06;6.50;;;3.83;;
17451;SDS011;8843;48.838;9.324;2022-10-31T03:47:36;5.43;;;3.00;;
17451;SDS011;8843;48.838;9.324;2022-10-31T03:50:06;6.47;;;3.73;;
17451;SDS011;8843;48.838;9.324;2022-10-31T03:52:35;7.17;;;3.40;;
17451;SDS011;8843;48.838;9.324;2022-10-31T03:55:07;5.57;;;3.13;;
17451;SDS011;8843;48.838;9.324;2022-10-31T03:57:39;7.87;;;4.33;;
17451;SDS011;8843;48.838;9.324;2022-10-31T04:00:11;5.83;;;3.30;;
17451;SDS011;8843;48.838;9.324;2022-10-31T04:02:41;6.97;;;3.70;;
17451;SDS011;8843;48.838;9.324;2022-10-31T04:05:13;6.97;;;3.93;;
17451;SDS011;8843;48.838;9.324;2022-10-31T04:07:43;4.33;;;3.60;;
17451;SDS011;8843;48.838;9.324;2022-10-31T04:10:13;5.73;;;3.30;;
17451;SDS011;8843;48.838;9.324;2022-10-31T04:12:42;7.23;;;3.63;;
17451;SDS011;8843;48.838;9.324;2022-10-31T04:15:11;8.40;;;3.47;;
17451;SDS011;8843;48.838;9.324;2022-10-31T04:17:40;4.57;;;3.37;;
17451;SDS011;8843;48.838;9.324;2022-10-31T04:20:12;4.73;;;3.27;;
17451;SDS011;8843;48.838;9.324;2022-10-31T04:22:42;6.83;;;3.30;;
17451;SDS011;8843;48.838;9.324;2022-10-31T04:25:08;9.17;;;3.50;;
17451;SDS011;8843;48.838;9.324;2022-10-31T04:27:35;5.77;;;3.40;;
17451;SDS011;8843;48.838;9.324;2022-10-31T04:30:02;5.53;;;3.73;;
17451;SDS011;8843;48.838;9.324;2022-10-31T04:32:30;5.97;;;3.33;;
17451;SDS011;8843;48.838;9.324;2022-10-31T04:34:57;7.77;;;3.63;;
17451;SDS011;8843;48.838;9.324;2022-10-31T04:37:25;7.17;;;3.80;;
17451;SDS011;8843;48.838;9.324;2022-10-31T04:39:52;5.63;;;3.70;;
17451;SDS011;8843;48.838;9.324;2022-10-31T04:42:19;4.73;;;3.60;;
17451;SDS011;8843;48.838;9.324;2022-10-31T04:44:45;6.83;;;3.90;;
17451;SDS011;8843;48.838;9.324;2022-10-31T04:47:12;4.40;;;3.17;;
17451;SDS011;8843;48.838;9.324;2022-10-31T04:49:39;7.27;;;3.60;;
17451;SDS011;8843;48.838;9.324;2022-10-31T04:52:06;5.67;;;3.67;;
17451;SDS011;8843;48.838;9.324;2022-10-31T04:54:34;4.77;;;3.60;;
17451;SDS011;8843;48.838;9.324;2022-10-31T04:57:01;4.73;;;3.10;;
17451;SDS011;8843;48.838;9.324;2022-10-31T04:59:28;5.00;;;3.37;;
17451;SDS011;8843;48.838;9.324;2022-10-31T05:01:55;13.23;;;3.70;;
17451;SDS011;8843;48.838;9.324;2022-10-31T05:04:22;4.60;;;2.97;;
17451;SDS011;8843;48.838;9.324;2022-10-31T05:06:49;6.80;;;3.33;;
17451;SDS011;8843;48.838;9.324;2022-10-31T05:09:16;6.57;;;3.27;;
17451;SDS011;8843;48.838;9.324;2022-10-31T05:11:44;6.90;;;3.73;;
17451;SDS011;8843;48.838;9.324;2022-10-31T05:14:11;8.20;;;4.03;;
17451;SDS011;8843;48.838;9.324;2022-10-31T05:16:38;6.30;;;3.50;;
17451;SDS011;8843;48.838;9.324;2022-10-31T05:19:04;7.17;;;3.27;;
17451;SDS011;8843;48.838;9.324;2022-10-31T05:21:31;8.87;;;3.60;;
17451;SDS011;8843;48.838;9.324;2022-10-31T05:23:58;4.73;;;2.80;;
17451;SDS011;8843;48.838;9.324;2022-10-31T05:26:25;5.07;;;3.23;;
17451;SDS011;8843;48.838;9.324;2022-10-31T05:28:53;4.10;;;3.60;;
17451;SDS011;8843;48.838;9.324;2022-10-31T05:31:20;7.23;;;3.10;;
17451;SDS011;8843;48.838;9.324;2022-10-31T05:33:47;4.63;;;3.27;;
17451;SDS011;8843;48.838;9.324;2022-10-31T05:36:14;5.97;;;3.90;;
17451;SDS011;8843;48.838;9.324;2022-10-31T05:38:41;4.47;;;3.33;;
17451;SDS011;8843;48.838;9.324;2022-10-31T05:41:07;9.23;;;3.73;;
17451;SDS011;8843;48.838;9.324;2022-10-31T05:43:34;8.70;;;4.47;;
17451;SDS011;8843;48.838;9.324;2022-10-31T05:46:03;7.07;;;3.80;;
17451;SDS011;8843;48.838;9.324;2022-10-31T05:48:30;9.67;;;4.13;;
17451;SDS011;8843;48.838;9.324;2022-10-31T05:50:57;7.40;;;3.93;;
17451;SDS011;8843;48.838;9.324;2022-10-31T05:53:24;6.97;;;3.37;;
17451;SDS011;8843;48.838;9.324;2022-10-31T05:55:51;6.90;;;4.17;;
17451;SDS011;8843;48.838;9.324;2022-10-31T05:58:17;9.37;;;3.53;;
17451;SDS011;8843;48.838;9.324;2022-10-31T06:00:44;8.57;;;3.87;;
17451;SDS011;8843;48.838;9.324;2022-10-31T06:03:13;5.97;;;3.40;;
17451;SDS011;8843;48.838;9.324;2022-10-31T06:05:40;8.83;;;4.60;;
17451;SDS011;8843;48.838;9.324;2022-10-31T06:08:06;8.60;;;3.87;;
17451;SDS011;8843;48.838;9.324;2022-10-31T06:10:33;7.37;;;3.60;;
17451;SDS011;8843;48.838;9.324;2022-10-31T06:13:00;8.23;;;3.70;;
17451;SDS011;8843;48.838;9.324;2022-10-31T06:15:27;7.80;;;3.13;;
17451;SDS011;8843;48.838;9.324;2022-10-31T06:17:58;5.07;;;3.80;;
17451;SDS011;8843;48.838;9.324;2022-10-31T06:20:26;9.33;;;4.33;;
17451;SDS011;8843;48.838;9.324;2022-10-31T06:22:53;5.27;;;3.77;;
17451;SDS011;8843;48.838;9.324;2022-10-31T06:25:20;5.73;;;3.47;;
17451;SDS011;8843;48.838;9.324;2022-10-31T06:27:47;6.30;;;3.70;;
17451;SDS011;8843;48.838;9.324;2022-10-31T06:30:14;6.60;;;3.37;;
17451;SDS011;8843;48.838;9.324;2022-10-31T06:32:41;6.03;;;3.70;;
17451;SDS011;8843;48.838;9.324;2022-10-31T06:35:08;7.03;;;3.67;;
17451;SDS011;8843;48.838;9.324;2022-10-31T06:37:36;12.53;;;4.23;;
17451;SDS011;8843;48.838;9.324;2022-10-31T06:40:04;7.87;;;3.83;;
17451;SDS011;8843;48.838;9.324;2022-10-31T06:42:31;6.73;;;4.23;;
17451;SDS011;8843;48.838;9.324;2022-10-31T06:44:58;7.77;;;4.10;;
17451;SDS011;8843;48.838;9.324;2022-10-31T06:47:25;11.23;;;3.77;;
17451;SDS011;8843;48.838;9.324;2022-10-31T06:49:52;6.70;;;3.97;;
17451;SDS011;8843;48.838;9.324;2022-10-31T06:52:19;6.87;;;3.87;;
17451;SDS011;8843;48.838;9.324;2022-10-31T06:54:47;7.77;;;3.60;;
17451;SDS011;8843;48.838;9.324;2022-10-31T06:57:14;8.67;;;4.43;;
17451;SDS011;8843;48.838;9.324;2022-10-31T06:59:41;8.50;;;4.33;;
17451;SDS011;8843;48.838;9.324;2022-10-31T07:02:08;6.10;;;4.43;;
17451;SDS011;8843;48.838;9.324;2022-10-31T07:04:36;9.67;;;4.83;;
17451;SDS011;8843;48.838;9.324;2022-10-31T07:07:03;4.03;;;3.47;;
17451;SDS011;8843;48.838;9.324;2022-10-31T07:09:30;7.27;;;4.23;;
17451;SDS011;8843;48.838;9.324;2022-10-31T07:11:58;5.53;;;3.57;;
17451;SDS011;8843;48.838;9.324;2022-10-31T07:14:25;7.10;;;3.90;;
17451;SDS011;8843;48.838;9.324;2022-10-31T07:16:51;4.53;;;3.27;;
17451;SDS011;8843;48.838;9.324;2022-10-31T07:19:18;5.83;;;3.40;;
17451;SDS011;8843;48.838;9.324;2022-10-31T07:21:45;9.03;;;3.97;;
17451;SDS011;8843;48.838;9.324;2022-10-31T07:24:12;9.37;;;4.73;;
17451;SDS011;8843;48.838;9.324;2022-10-31T07:26:39;6.33;;;3.87;;
17451;SDS011;8843;48.838;9.324;2022-10-31T07:29:08;8.17;;;4.30;;
17451;SDS011;8843;48.838;9.324;2022-10-31T07:31:35;4.93;;;3.97;;
17451;SDS011;8843;48.838;9.324;2022-10-31T07:34:02;5.53;;;3.80;;
17451;SDS011;8843;48.838;9.324;2022-10-31T07:36:29;5.47;;;3.70;;
17451;SDS011;8843;48.838;9.324;2022-10-31T07:38:56;16.77;;;4.43;;
17451;SDS011;8843;48.838;9.324;2022-10-31T07:41:24;7.23;;;3.63;;
17451;SDS011;8843;48.838;9.324;2022-10-31T07:43:50;7.80;;;3.53;;
17451;SDS011;8843;48.838;9.324;2022-10-31T07:46:19;7.37;;;3.90;;
17451;SDS011;8843;48.838;9.324;2022-10-31T07:48:47;5.20;;;3.47;;
17451;SDS011;8843;48.838;9.324;2022-10-31T07:51:14;5.37;;;3.70;;
17451;SDS011;8843;48.838;9.324;2022-10-31T07:53:41;5.53;;;4.03;;
17451;SDS011;8843;48.838;9.324;2022-10-31T07:56:08;5.17;;;3.80;;
17451;SDS011;8843;48.838;9.324;2022-10-31T07:58:35;10.03;;;4.43;;
17451;SDS011;8843;48.838;9.324;2022-10-31T08:01:01;7.13;;;4.30;;
17451;SDS011;8843;48.838;9.324;2022-10-31T08:03:30;5.93;;;4.10;;
17451;SDS011;8843;48.838;9.324;2022-10-31T08:05:56;5.07;;;3.67;;
17451;SDS011;8843;48.838;9.324;2022-10-31T08:08:23;11.20;;;4.83;;
17451;SDS011;8843;48.838;9.324;2022-10-31T08:10:53;11.50;;;3.80;;
17451;SDS011;8843;48.838;9.324;2022-10-31T08:13:19;5.10;;;3.70;;
17451;SDS011;8843;48.838;9.324;2022-10-31T08:15:46;6.23;;;3.90;;
17451;SDS011;8843;48.838;9.324;2022-10-31T08:18:15;7.93;;;3.73;;
17451;SDS011;8843;48.838;9.324;2022-10-31T08:20:44;5.73;;;3.90;;
17451;SDS011;8843;48.838;9.324;2022-10-31T08:23:11;4.83;;;3.70;;
17451;SDS011;8843;48.838;9.324;2022-10-31T08:25:38;6.70;;;4.13;;
17451;SDS011;8843;48.838;9.324;2022-10-31T08:28:07;4.20;;;3.17;;
17451;SDS011;8843;48.838;9.324;2022-10-31T08:30:36;8.90;;;4.43;;
17451;SDS011;8843;48.838;9.324;2022-10-31T08:33:04;6.37;;;3.77;;
17451;SDS011;8843;48.838;9.324;2022-10-31T08:35:33;4.80;;;4.00;;
17451;SDS011;8843;48.838;9.324;2022-10-31T08:38:01;7.10;;;3.93;;
17451;SDS011;8843;48.838;9.324;2022-10-31T08:40:29;7.80;;;4.23;;
17451;SDS011;8843;48.838;9.324;2022-10-31T08:42:58;7.80;;;3.93;;
17451;SDS011;8843;48.838;9.324;2022-10-31T08:45:26;5.00;;;3.83;;
17451;SDS011;8843;48.838;9.324;2022-10-31T08:47:56;6.73;;;4.07;;
17451;SDS011;8843;48.838;9.324;2022-10-31T08:50:23;8.20;;;4.43;;
17451;SDS011;8843;48.838;9.324;2022-10-31T08:52:51;6.60;;;4.47;;
17451;SDS011;8843;48.838;9.324;2022-10-31T08:55:19;6.07;;;4.53;;
17451;SDS011;8843;48.838;9.324;2022-10-31T08:57:46;7.60;;;4.13;;
17451;SDS011;8843;48.838;9.324;2022-10-31T09:00:13;8.30;;;4.97;;
17451;SDS011;8843;48.838;9.324;2022-10-31T09:02:40;10.90;;;4.87;;
17451;SDS011;8843;48.838;9.324;2022-10-31T09:05:07;10.50;;;4.73;;
17451;SDS011;8843;48.838;9.324;2022-10-31T09:07:34;8.50;;;5.23;;
17451;SDS011;8843;48.838;9.324;2022-10-31T09:10:02;7.27;;;4.80;;
17451;SDS011;8843;48.838;9.324;2022-10-31T09:12:30;11.77;;;5.17;;
17451;SDS011;8843;48.838;9.324;2022-10-31T09:14:57;8.17;;;5.03;;
17451;SDS011;8843;48.838;9.324;2022-10-31T09:17:25;8.57;;;5.10;;
17451;SDS011;8843;48.838;9.324;2022-10-31T09:19:54;6.60;;;4.93;;
17451;SDS011;8843;48.838;9.324;2022-10-31T09:22:21;9.37;;;4.77;;
17451;SDS011;8843;48.838;9.324;2022-10-31T09:24:47;5.93;;;4.57;;
17451;SDS011;8843;48.838;9.324;2022-10-31T09:27:14;8.27;;;4.50;;
17451;SDS011;8843;48.838;9.324;2022-10-31T09:29:42;8.53;;;4.97;;
17451;SDS011;8843;48.838;9.324;2022-10-31T09:32:09;7.83;;;5.03;;
17451;SDS011;8843;48.838;9.324;2022-10-31T09:34:36;9.23;;;5.13;;
17451;SDS011;8843;48.838;9.324;2022-10-31T09:37:03;8.27;;;5.17;;
17451;SDS011;8843;48.838;9.324;2022-10-31T09:39:30;6.80;;;4.30;;
17451;SDS011;8843;48.838;9.324;2022-10-31T09:42:07;8.90;;;5.13;;
17451;SDS011;8843;48.838;9.324;2022-10-31T09:44:50;11.73;;;5.63;;
17451;SDS011;8843;48.838;9.324;2022-10-31T09:47:26;9.30;;;5.23;;
17451;SDS011;8843;48.838;9.324;2022-10-31T09:50:06;13.93;;;6.40;;
17451;SDS011;8843;48.838;9.324;2022-10-31T09:52:41;8.77;;;5.90;;
17451;SDS011;8843;48.838;9.324;2022-10-31T09:55:14;8.40;;;6.03;;
17451;SDS011;8843;48.838;9.324;2022-10-31T09:57:44;10.63;;;6.40;;
17451;SDS011;8843;48.838;9.324;2022-10-31T10:00:16;7.80;;;6.30;;
17451;SDS011;8843;48.838;9.324;2022-10-31T10:02:47;10.90;;;6.50;;
17451;SDS011;8843;48.838;9.324;2022-10-31T10:05:18;8.93;;;6.37;;
17451;SDS011;8843;48.838;9.324;2022-10-31T10:07:53;11.33;;;6.50;;
17451;SDS011;8843;48.838;9.324;2022-10-31T10:10:27;11.13;;;5.83;;
17451;SDS011;8843;48.838;9.324;2022-10-31T10:13:11;9.10;;;5.90;;
17451;SDS011;8843;48.838;9.324;2022-10-31T10:15:54;15.30;;;6.10;;
17451;SDS011;8843;48.838;9.324;2022-10-31T10:18:37;13.23;;;6.10;;
17451;SDS011;8843;48.838;9.324;2022-10-31T10:21:22;10.20;;;5.43;;
17451;SDS011;8843;48.838;9.324;2022-10-31T10:23:58;9.30;;;6.40;;
17451;SDS011;8843;48.838;9.324;2022-10-31T10:26:36;10.63;;;6.77;;
17451;SDS011;8843;48.838;9.324;2022-10-31T10:29:14;9.53;;;6.00;;
17451;SDS011;8843;48.838;9.324;2022-10-31T10:31:51;11.50;;;5.60;;
17451;SDS011;8843;48.838;9.324;2022-10-31T10:34:20;9.50;;;5.77;;
17451;SDS011;8843;48.838;9.324;2022-10-31T10:36:53;10.77;;;6.50;;
17451;SDS011;8843;48.838;9.324;2022-10-31T10:39:23;10.30;;;6.40;;
17451;SDS011;8843;48.838;9.324;2022-10-31T10:41:54;11.00;;;6.80;;
17451;SDS011;8843;48.838;9.324;2022-10-31T10:44:42;11.70;;;5.70;;
17451;SDS011;8843;48.838;9.324;2022-10-31T10:47:32;11.37;;;6.07;;
17451;SDS011;8843;48.838;9.324;2022-10-31T10:50:07;9.67;;;5.80;;
17451;SDS011;8843;48.838;9.324;2022-10-31T10:52:42;8.33;;;5.50;;
17451;SDS011;8843;48.838;9.324;2022-10-31T10:55:16;8.40;;;5.30;;
17451;SDS011;8843;48.838;9.324;2022-10-31T10:57:54;10.27;;;5.97;;
17451;SDS011;8843;48.838;9.324;2022-10-31T11:00:23;10.30;;;5.73;;
17451;SDS011;8843;48.838;9.324;2022-10-31T11:02:54;9.30;;;5.20;;
17451;SDS011;8843;48.838;9.324;2022-10-31T11:05:23;9.13;;;5.53;;
17451;SDS011;8843;48.838;9.324;2022-10-31T11:07:54;10.03;;;4.93;;
17451;SDS011;8843;48.838;9.324;2022-10-31T11:10:21;7.20;;;4.93;;
17451;SDS011;8843;48.838;9.324;2022-10-31T11:12:58;8.50;;;5.10;;
17451;SDS011;8843;48.838;9.324;2022-10-31T11:15:49;11.63;;;4.90;;
17451;SDS011;8843;48.838;9.324;2022-10-31T11:18:21;11.07;;;5.93;;
17451;SDS011;8843;48.838;9.324;2022-10-31T11:20:51;10.47;;;5.50;;
17451;SDS011;8843;48.838;9.324;2022-10-31T11:23:20;13.00;;;5.60;;
17451;SDS011;8843;48.838;9.324;2022-10-31T11:25:49;9.30;;;5.20;;
17451;SDS011;8843;48.838;9.324;2022-10-31T11:28:17;11.77;;;5.67;;
17451;SDS011;8843;48.838;9.324;2022-10-31T11:30:45;10.17;;;5.03;;
17451;SDS011;8843;48.838;9.324;2022-10-31T11:33:16;10.03;;;5.27;;
17451;SDS011;8843;48.838;9.324;2022-10-31T11:35:47;7.20;;;5.43;;
17451;SDS011;8843;48.838;9.324;2022-10-31T11:38:15;8.33;;;5.03;;
17451;SDS011;8843;48.838;9.324;2022-10-31T11:40:52;7.00;;;5.50;;
17451;SDS011;8843;48.838;9.324;2022-10-31T11:43:21;7.23;;;5.20;;
17451;SDS011;8843;48.838;9.324;2022-10-31T11:45:49;12.07;;;4.97;;
17451;SDS011;8843;48.838;9.324;2022-10-31T11:48:16;9.30;;;5.30;;
17451;SDS011;8843;48.838;9.324;2022-10-31T11:50:49;6.67;;;4.93;;
17451;SDS011;8843;48.838;9.324;2022-10-31T11:53:18;7.57;;;4.50;;
17451;SDS011;8843;48.838;9.324;2022-10-31T11:55:48;8.60;;;5.53;;
17451;SDS011;8843;48.838;9.324;2022-10-31T11:58:31;9.23;;;4.90;;
17451;SDS011;8843;48.838;9.324;2022-10-31T12:00:58;7.90;;;4.80;;
17451;SDS011;8843;48.838;9.324;2022-10-31T12:03:32;7.67;;;4.43;;
17451;SDS011;8843;48.838;9.324;2022-10-31T12:06:07;9.20;;;4.93;;
17451;SDS011;8843;48.838;9.324;2022-10-31T12:08:38;9.17;;;5.03;;
17451;SDS011;8843;48.838;9.324;2022-10-31T12:11:10;8.43;;;4.80;;
17451;SDS011;8843;48.838;9.324;2022-10-31T12:13:49;9.87;;;5.40;;
17451;SDS011;8843;48.838;9.324;2022-10-31T12:16:26;6.60;;;4.57;;
17451;SDS011;8843;48.838;9.324;2022-10-31T12:19:00;8.10;;;4.83;;
17451;SDS011;8843;48.838;9.324;2022-10-31T12:21:37;7.43;;;4.27;;
17451;SDS011;8843;48.838;9.324;2022-10-31T12:24:25;10.97;;;4.87;;
17451;SDS011;8843;48.838;9.324;2022-10-31T12:27:09;9.27;;;5.00;;
17451;SDS011;8843;48.838;9.324;2022-10-31T12:29:48;8.73;;;4.93;;
17451;SDS011;8843;48.838;9.324;2022-10-31T12:32:29;15.03;;;4.83;;
17451;SDS011;8843;48.838;9.324;2022-10-31T12:35:16;12.03;;;5.07;;
17451;SDS011;8843;48.838;9.324;2022-10-31T12:37:57;9.90;;;5.20;;
17451;SDS011;8843;48.838;9.324;2022-10-31T12:40:44;6.40;;;4.47;;
17451;SDS011;8843;48.838;9.324;2022-10-31T12:43:25;7.83;;;4.67;;
17451;SDS011;8843;48.838;9.324;2022-10-31T12:46:01;8.80;;;4.47;;
17451;SDS011;8843;48.838;9.324;2022-10-31T12:51:38;9.83;;;4.47;;
17451;SDS011;8843;48.838;9.324;2022-10-31T12:54:22;7.40;;;4.53;;
17451;SDS011;8843;48.838;9.324;2022-10-31T12:56:59;11.00;;;4.53;;
17451;SDS011;8843;48.838;9.324;2022-10-31T12:59:33;7.17;;;4.17;;
17451;SDS011;8843;48.838;9.324;2022-10-31T13:02:06;8.87;;;4.57;;
17451;SDS011;8843;48.838;9.324;2022-10-31T13:04:42;13.73;;;4.67;;
17451;SDS011;8843;48.838;9.324;2022-10-31T13:07:14;11.97;;;5.43;;
17451;SDS011;8843;48.838;9.324;2022-10-31T13:09:47;13.20;;;5.33;;
17451;SDS011;8843;48.838;9.324;2022-10-31T13:12:20;8.13;;;4.57;;
17451;SDS011;8843;48.838;9.324;2022-10-31T13:14:49;11.60;;;5.87;;
17451;SDS011;8843;48.838;9.324;2022-10-31T13:17:22;9.30;;;5.63;;
17451;SDS011;8843;48.838;9.324;2022-10-31T13:19:54;10.60;;;5.23;;
17451;SDS011;8843;48.838;9.324;2022-10-31T13:22:30;11.90;;;5.50;;
17451;SDS011;8843;48.838;9.324;2022-10-31T13:25:03;9.97;;;5.87;;
17451;SDS011;8843;48.838;9.324;2022-10-31T13:27:41;11.90;;;5.20;;
17451;SDS011;8843;48.838;9.324;2022-10-31T13:30:14;10.73;;;4.97;;
17451;SDS011;8843;48.838;9.324;2022-10-31T13:32:44;7.27;;;5.07;;
17451;SDS011;8843;48.838;9.324;2022-10-31T13:35:16;10.83;;;5.70;;
17451;SDS011;8843;48.838;9.324;2022-10-31T13:37:49;11.27;;;5.87;;
17451;SDS011;8843;48.838;9.324;2022-10-31T13:40:27;12.33;;;5.27;;
17451;SDS011;8843;48.838;9.324;2022-10-31T13:43:02;9.27;;;5.50;;
17451;SDS011;8843;48.838;9.324;2022-10-31T13:45:35;11.10;;;5.93;;
17451;SDS011;8843;48.838;9.324;2022-10-31T13:48:18;11.43;;;6.40;;
17451;SDS011;8843;48.838;9.324;2022-10-31T13:50:59;8.87;;;5.57;;
17451;SDS011;8843;48.838;9.324;2022-10-31T13:53:35;9.03;;;5.90;;
17451;SDS011;8843;48.838;9.324;2022-10-31T13:56:15;12.37;;;5.93;;
17451;SDS011;8843;48.838;9.324;2022-10-31T14:01:28;12.87;;;5.77;;
17451;SDS011;8843;48.838;9.324;2022-10-31T14:03:58;11.17;;;5.93;;
17451;SDS011;8843;48.838;9.324;2022-10-31T14:06:36;12.10;;;5.53;;
17451;SDS011;8843;48.838;9.324;2022-10-31T14:09:05;7.07;;;5.27;;
17451;SDS011;8843;48.838;9.324;2022-10-31T14:11:49;10.47;;;6.30;;
17451;SDS011;8843;48.838;9.324;2022-10-31T14:14:17;9.93;;;5.57;;
17451;SDS011;8843;48.838;9.324;2022-10-31T14:16:45;11.83;;;5.47;;
17451;SDS011;8843;48.838;9.324;2022-10-31T14:19:19;15.60;;;6.07;;
17451;SDS011;8843;48.838;9.324;2022-10-31T14:21:47;8.33;;;5.43;;
17451;SDS011;8843;48.838;9.324;2022-10-31T14:24:28;10.37;;;5.57;;
17451;SDS011;8843;48.838;9.324;2022-10-31T14:26:59;9.83;;;5.73;;
17451;SDS011;8843;48.838;9.324;2022-10-31T14:29:27;8.50;;;5.60;;
17451;SDS011;8843;48.838;9.324;2022-10-31T14:31:56;15.30;;;6.40;;
17451;SDS011;8843;48.838;9.324;2022-10-31T14:34:36;11.37;;;5.73;;
17451;SDS011;8843;48.838;9.324;2022-10-31T14:40:06;11.63;;;5.90;;
17451;SDS011;8843;48.838;9.324;2022-10-31T14:42:49;9.33;;;6.07;;
17451;SDS011;8843;48.838;9.324;2022-10-31T14:45:31;9.13;;;6.00;;
17451;SDS011;8843;48.838;9.324;2022-10-31T14:48:11;11.60;;;5.83;;
17451;SDS011;8843;48.838;9.324;2022-10-31T14:50:49;8.27;;;5.70;;
17451;SDS011;8843;48.838;9.324;2022-10-31T14:53:19;11.87;;;5.60;;
17451;SDS011;8843;48.838;9.324;2022-10-31T14:55:50;12.27;;;6.03;;
17451;SDS011;8843;48.838;9.324;2022-10-31T14:58:21;11.10;;;5.77;;
17451;SDS011;8843;48.838;9.324;2022-10-31T15:00:52;13.73;;;6.30;;
17451;SDS011;8843;48.838;9.324;2022-10-31T15:03:24;10.70;;;4.70;;
17451;SDS011;8843;48.838;9.324;2022-10-31T15:05:55;8.83;;;5.40;;
17451;SDS011;8843;48.838;9.324;2022-10-31T15:08:29;13.63;;;5.77;;
17451;SDS011;8843;48.838;9.324;2022-10-31T15:11:11;8.90;;;5.73;;
17451;SDS011;8843;48.838;9.324;2022-10-31T15:13:44;10.03;;;5.73;;
17451;SDS011;8843;48.838;9.324;2022-10-31T15:16:13;8.37;;;5.00;;
17451;SDS011;8843;48.838;9.324;2022-10-31T15:18:46;10.67;;;6.13;;
17451;SDS011;8843;48.838;9.324;2022-10-31T15:21:21;8.93;;;5.47;;
17451;SDS011;8843;48.838;9.324;2022-10-31T15:23:50;9.30;;;5.47;;
17451;SDS011;8843;48.838;9.324;2022-10-31T15:26:19;13.73;;;6.07;;
17451;SDS011;8843;48.838;9.324;2022-10-31T15:28:58;12.23;;;5.57;;
17451;SDS011;8843;48.838;9.324;2022-10-31T15:31:27;8.90;;;5.20;;